sensor_id;sensor_type;location;lat;lon;timestamp;P1;durP1;ratioP1;P2;durP2;ratioP2
52033;SDS011;38045;52.988;6.536;2024-01-07T00:01:15;13.32;;;10.98;;
52033;SDS011;38045;52.988;6.536;2024-01-07T00:03:41;14.38;;;11.00;;
52033;SDS011;38045;52.988;6.536;2024-01-07T00:06:07;14.27;;;10.23;;
52033;SDS011;38045;52.988;6.536;2024-01-07T00:08:34;14.68;;;12.23;;
52033;SDS011;38045;52.988;6.536;2024-01-07T00:11:00;15.90;;;10.68;;
52033;SDS011;38045;52.988;6.536;2024-01-07T00:13:26;14.30;;;11.73;;
52033;SDS011;38045;52.988;6.536;2024-01-07T00:15:51;16.38;;;12.35;;
52033;SDS011;38045;52.988;6.536;2024-01-07T00:18:19;19.58;;;14.27;;
52033;SDS011;38045;52.988;6.536;2024-01-07T00:20:44;14.30;;;8.55;;
52033;SDS011;38045;52.988;6.536;2024-01-07T00:23:10;11.40;;;9.80;;
52033;SDS011;38045;52.988;6.536;2024-01-07T00:25:36;13.30;;;11.30;;
52033;SDS011;38045;52.988;6.536;2024-01-07T00:28:01;15.10;;;12.40;;
52033;SDS011;38045;52.988;6.536;2024-01-07T00:30:27;15.05;;;13.20;;
52033;SDS011;38045;52.988;6.536;2024-01-07T00:32:52;15.88;;;11.93;;
52033;SDS011;38045;52.988;6.536;2024-01-07T00:35:18;17.20;;;12.82;;
52033;SDS011;38045;52.988;6.536;2024-01-07T00:37:44;15.60;;;12.05;;
52033;SDS011;38045;52.988;6.536;2024-01-07T00:40:09;13.35;;;11.93;;
52033;SDS011;38045;52.988;6.536;2024-01-07T00:42:35;16.95;;;12.48;;
52033;SDS011;38045;52.988;6.536;2024-01-07T00:45:01;19.25;;;14.55;;
52033;SDS011;38045;52.988;6.536;2024-01-07T00:47:27;16.23;;;12.32;;
52033;SDS011;38045;52.988;6.536;2024-01-07T00:49:53;16.60;;;13.45;;
52033;SDS011;38045;52.988;6.536;2024-01-07T00:52:19;17.30;;;14.18;;
52033;SDS011;38045;52.988;6.536;2024-01-07T00:54:46;17.27;;;14.45;;
52033;SDS011;38045;52.988;6.536;2024-01-07T00:57:11;19.92;;;13.82;;
52033;SDS011;38045;52.988;6.536;2024-01-07T00:59:39;16.33;;;11.63;;
52033;SDS011;38045;52.988;6.536;2024-01-07T01:02:05;16.08;;;12.05;;
52033;SDS011;38045;52.988;6.536;2024-01-07T01:04:31;15.07;;;12.80;;
52033;SDS011;38045;52.988;6.536;2024-01-07T01:06:56;16.33;;;12.45;;
52033;SDS011;38045;52.988;6.536;2024-01-07T01:09:22;14.50;;;12.07;;
52033;SDS011;38045;52.988;6.536;2024-01-07T01:11:47;19.25;;;12.93;;
52033;SDS011;38045;52.988;6.536;2024-01-07T01:14:14;13.77;;;9.63;;
52033;SDS011;38045;52.988;6.536;2024-01-07T01:16:40;9.60;;;8.25;;
52033;SDS011;38045;52.988;6.536;2024-01-07T01:19:06;16.92;;;11.57;;
52033;SDS011;38045;52.988;6.536;2024-01-07T01:21:31;11.88;;;9.13;;
52033;SDS011;38045;52.988;6.536;2024-01-07T01:23:57;12.80;;;8.00;;
52033;SDS011;38045;52.988;6.536;2024-01-07T01:26:23;12.48;;;9.80;;
52033;SDS011;38045;52.988;6.536;2024-01-07T01:28:49;17.60;;;12.20;;
52033;SDS011;38045;52.988;6.536;2024-01-07T01:31:14;14.00;;;11.82;;
52033;SDS011;38045;52.988;6.536;2024-01-07T01:33:40;14.88;;;11.13;;
52033;SDS011;38045;52.988;6.536;2024-01-07T01:36:06;13.77;;;12.32;;
52033;SDS011;38045;52.988;6.536;2024-01-07T01:38:32;15.95;;;11.13;;
52033;SDS011;38045;52.988;6.536;2024-01-07T01:40:58;10.93;;;9.73;;
52033;SDS011;38045;52.988;6.536;2024-01-07T01:43:27;14.90;;;10.35;;
52033;SDS011;38045;52.988;6.536;2024-01-07T01:45:54;14.13;;;12.23;;
52033;SDS011;38045;52.988;6.536;2024-01-07T01:48:21;14.07;;;9.50;;
52033;SDS011;38045;52.988;6.536;2024-01-07T01:50:48;12.95;;;10.30;;
52033;SDS011;38045;52.988;6.536;2024-01-07T01:53:15;13.13;;;9.90;;
52033;SDS011;38045;52.988;6.536;2024-01-07T01:55:43;16.45;;;11.15;;
52033;SDS011;38045;52.988;6.536;2024-01-07T01:58:09;14.65;;;12.13;;
52033;SDS011;38045;52.988;6.536;2024-01-07T02:00:35;17.95;;;12.48;;
52033;SDS011;38045;52.988;6.536;2024-01-07T02:03:01;16.92;;;12.68;;
52033;SDS011;38045;52.988;6.536;2024-01-07T02:05:27;12.68;;;9.82;;
52033;SDS011;38045;52.988;6.536;2024-01-07T02:07:53;14.20;;;9.63;;
52033;SDS011;38045;52.988;6.536;2024-01-07T02:10:21;14.90;;;11.30;;
52033;SDS011;38045;52.988;6.536;2024-01-07T02:12:47;15.52;;;10.40;;
52033;SDS011;38045;52.988;6.536;2024-01-07T02:15:13;10.38;;;8.85;;
52033;SDS011;38045;52.988;6.536;2024-01-07T02:17:39;10.88;;;8.65;;
52033;SDS011;38045;52.988;6.536;2024-01-07T02:20:05;12.93;;;8.70;;
52033;SDS011;38045;52.988;6.536;2024-01-07T02:22:31;10.23;;;8.75;;
52033;SDS011;38045;52.988;6.536;2024-01-07T02:24:57;13.50;;;10.55;;
52033;SDS011;38045;52.988;6.536;2024-01-07T02:27:22;12.70;;;9.27;;
52033;SDS011;38045;52.988;6.536;2024-01-07T02:29:48;6.88;;;5.97;;
52033;SDS011;38045;52.988;6.536;2024-01-07T02:32:13;12.40;;;8.70;;
52033;SDS011;38045;52.988;6.536;2024-01-07T02:34:39;10.23;;;9.10;;
52033;SDS011;38045;52.988;6.536;2024-01-07T02:37:05;10.77;;;9.68;;
52033;SDS011;38045;52.988;6.536;2024-01-07T02:39:30;11.00;;;8.30;;
52033;SDS011;38045;52.988;6.536;2024-01-07T02:41:56;9.65;;;7.38;;
52033;SDS011;38045;52.988;6.536;2024-01-07T02:44:22;14.18;;;7.93;;
52033;SDS011;38045;52.988;6.536;2024-01-07T02:46:47;10.88;;;8.93;;
52033;SDS011;38045;52.988;6.536;2024-01-07T02:49:13;11.77;;;7.25;;
52033;SDS011;38045;52.988;6.536;2024-01-07T02:51:39;6.40;;;5.55;;
52033;SDS011;38045;52.988;6.536;2024-01-07T02:54:05;11.23;;;8.10;;
52033;SDS011;38045;52.988;6.536;2024-01-07T02:56:30;9.05;;;7.88;;
52033;SDS011;38045;52.988;6.536;2024-01-07T02:58:56;10.25;;;7.43;;
52033;SDS011;38045;52.988;6.536;2024-01-07T03:01:22;7.10;;;5.13;;
52033;SDS011;38045;52.988;6.536;2024-01-07T03:03:48;10.23;;;8.45;;
52033;SDS011;38045;52.988;6.536;2024-01-07T03:06:14;7.40;;;5.85;;
52033;SDS011;38045;52.988;6.536;2024-01-07T03:08:39;7.93;;;7.05;;
52033;SDS011;38045;52.988;6.536;2024-01-07T03:11:05;9.80;;;7.70;;
52033;SDS011;38045;52.988;6.536;2024-01-07T03:13:31;10.50;;;6.70;;
52033;SDS011;38045;52.988;6.536;2024-01-07T03:15:57;9.75;;;6.80;;
52033;SDS011;38045;52.988;6.536;2024-01-07T03:18:23;8.93;;;7.10;;
52033;SDS011;38045;52.988;6.536;2024-01-07T03:20:48;8.18;;;6.22;;
52033;SDS011;38045;52.988;6.536;2024-01-07T03:23:14;9.07;;;8.13;;
52033;SDS011;38045;52.988;6.536;2024-01-07T03:25:40;11.40;;;7.85;;
52033;SDS011;38045;52.988;6.536;2024-01-07T03:28:06;8.68;;;6.57;;
52033;SDS011;38045;52.988;6.536;2024-01-07T03:30:31;9.45;;;6.25;;
52033;SDS011;38045;52.988;6.536;2024-01-07T03:32:57;10.88;;;6.32;;
52033;SDS011;38045;52.988;6.536;2024-01-07T03:35:22;8.40;;;6.70;;
52033;SDS011;38045;52.988;6.536;2024-01-07T03:37:49;9.07;;;5.65;;
52033;SDS011;38045;52.988;6.536;2024-01-07T03:40:15;7.57;;;5.85;;
52033;SDS011;38045;52.988;6.536;2024-01-07T03:42:40;9.45;;;7.28;;
52033;SDS011;38045;52.988;6.536;2024-01-07T03:45:06;5.95;;;5.35;;
52033;SDS011;38045;52.988;6.536;2024-01-07T03:47:32;8.75;;;5.97;;
52033;SDS011;38045;52.988;6.536;2024-01-07T03:49:57;7.10;;;5.10;;
52033;SDS011;38045;52.988;6.536;2024-01-07T03:52:23;10.15;;;6.28;;
52033;SDS011;38045;52.988;6.536;2024-01-07T03:54:49;6.95;;;6.20;;
52033;SDS011;38045;52.988;6.536;2024-01-07T03:57:14;9.13;;;5.22;;
52033;SDS011;38045;52.988;6.536;2024-01-07T03:59:40;9.45;;;6.07;;
52033;SDS011;38045;52.988;6.536;2024-01-07T04:02:06;8.35;;;7.43;;
52033;SDS011;38045;52.988;6.536;2024-01-07T04:04:31;5.22;;;4.72;;
52033;SDS011;38045;52.988;6.536;2024-01-07T04:06:57;9.43;;;7.65;;
52033;SDS011;38045;52.988;6.536;2024-01-07T04:09:23;4.38;;;3.45;;
52033;SDS011;38045;52.988;6.536;2024-01-07T04:11:48;8.93;;;6.35;;
52033;SDS011;38045;52.988;6.536;2024-01-07T04:14:17;10.00;;;6.88;;
52033;SDS011;38045;52.988;6.536;2024-01-07T04:16:42;6.20;;;5.32;;
52033;SDS011;38045;52.988;6.536;2024-01-07T04:19:08;9.57;;;4.82;;
52033;SDS011;38045;52.988;6.536;2024-01-07T04:21:34;7.63;;;6.03;;
52033;SDS011;38045;52.988;6.536;2024-01-07T04:24:00;6.53;;;5.78;;
52033;SDS011;38045;52.988;6.536;2024-01-07T04:26:26;7.82;;;6.20;;
52033;SDS011;38045;52.988;6.536;2024-01-07T04:28:52;10.20;;;7.15;;
52033;SDS011;38045;52.988;6.536;2024-01-07T04:31:17;6.97;;;4.88;;
52033;SDS011;38045;52.988;6.536;2024-01-07T04:33:43;8.93;;;6.35;;
52033;SDS011;38045;52.988;6.536;2024-01-07T04:36:08;7.28;;;5.78;;
52033;SDS011;38045;52.988;6.536;2024-01-07T04:38:34;8.93;;;5.05;;
52033;SDS011;38045;52.988;6.536;2024-01-07T04:41:00;8.38;;;4.57;;
52033;SDS011;38045;52.988;6.536;2024-01-07T04:43:26;7.22;;;4.75;;
52033;SDS011;38045;52.988;6.536;2024-01-07T04:45:51;5.38;;;4.18;;
52033;SDS011;38045;52.988;6.536;2024-01-07T04:48:17;5.88;;;3.88;;
52033;SDS011;38045;52.988;6.536;2024-01-07T04:50:42;5.25;;;4.28;;
52033;SDS011;38045;52.988;6.536;2024-01-07T04:53:09;8.88;;;4.13;;
52033;SDS011;38045;52.988;6.536;2024-01-07T04:55:35;6.32;;;3.58;;
52033;SDS011;38045;52.988;6.536;2024-01-07T04:58:01;6.25;;;3.55;;
52033;SDS011;38045;52.988;6.536;2024-01-07T05:00:27;5.60;;;4.63;;
52033;SDS011;38045;52.988;6.536;2024-01-07T05:02:53;4.75;;;4.13;;
52033;SDS011;38045;52.988;6.536;2024-01-07T05:05:18;5.13;;;4.15;;
52033;SDS011;38045;52.988;6.536;2024-01-07T05:07:44;6.72;;;3.95;;
52033;SDS011;38045;52.988;6.536;2024-01-07T05:10:09;5.95;;;4.40;;
52033;SDS011;38045;52.988;6.536;2024-01-07T05:12:35;5.75;;;3.42;;
52033;SDS011;38045;52.988;6.536;2024-01-07T05:15:00;5.82;;;3.92;;
52033;SDS011;38045;52.988;6.536;2024-01-07T05:17:26;3.90;;;2.35;;
52033;SDS011;38045;52.988;6.536;2024-01-07T05:19:53;6.30;;;3.45;;
52033;SDS011;38045;52.988;6.536;2024-01-07T05:22:19;5.40;;;3.53;;
52033;SDS011;38045;52.988;6.536;2024-01-07T05:24:46;3.08;;;2.20;;
52033;SDS011;38045;52.988;6.536;2024-01-07T05:27:11;4.82;;;3.53;;
52033;SDS011;38045;52.988;6.536;2024-01-07T05:29:37;4.18;;;2.90;;
52033;SDS011;38045;52.988;6.536;2024-01-07T05:32:02;6.82;;;2.55;;
52033;SDS011;38045;52.988;6.536;2024-01-07T05:34:29;5.45;;;3.05;;
52033;SDS011;38045;52.988;6.536;2024-01-07T05:36:54;3.90;;;2.63;;
52033;SDS011;38045;52.988;6.536;2024-01-07T05:39:20;3.35;;;3.00;;
52033;SDS011;38045;52.988;6.536;2024-01-07T05:41:46;2.35;;;1.80;;
52033;SDS011;38045;52.988;6.536;2024-01-07T05:44:11;3.80;;;2.47;;
52033;SDS011;38045;52.988;6.536;2024-01-07T05:46:38;4.28;;;3.78;;
52033;SDS011;38045;52.988;6.536;2024-01-07T05:49:04;5.15;;;2.65;;
52033;SDS011;38045;52.988;6.536;2024-01-07T05:51:30;2.95;;;2.10;;
52033;SDS011;38045;52.988;6.536;2024-01-07T05:53:56;2.53;;;2.33;;
52033;SDS011;38045;52.988;6.536;2024-01-07T05:56:22;3.30;;;2.15;;
52033;SDS011;38045;52.988;6.536;2024-01-07T05:58:48;5.13;;;3.13;;
52033;SDS011;38045;52.988;6.536;2024-01-07T06:01:18;8.82;;;2.38;;
52033;SDS011;38045;52.988;6.536;2024-01-07T06:03:45;2.70;;;1.90;;
52033;SDS011;38045;52.988;6.536;2024-01-07T06:06:12;1.98;;;1.58;;
52033;SDS011;38045;52.988;6.536;2024-01-07T06:08:38;3.30;;;1.77;;
52033;SDS011;38045;52.988;6.536;2024-01-07T06:11:03;2.58;;;2.38;;
52033;SDS011;38045;52.988;6.536;2024-01-07T06:13:29;5.28;;;2.25;;
52033;SDS011;38045;52.988;6.536;2024-01-07T06:15:55;2.35;;;2.00;;
52033;SDS011;38045;52.988;6.536;2024-01-07T06:18:20;2.88;;;2.45;;
52033;SDS011;38045;52.988;6.536;2024-01-07T06:20:46;4.03;;;1.10;;
52033;SDS011;38045;52.988;6.536;2024-01-07T06:23:12;8.32;;;3.88;;
52033;SDS011;38045;52.988;6.536;2024-01-07T06:25:37;3.15;;;2.78;;
52033;SDS011;38045;52.988;6.536;2024-01-07T06:28:04;3.53;;;2.50;;
52033;SDS011;38045;52.988;6.536;2024-01-07T06:30:30;2.95;;;1.85;;
52033;SDS011;38045;52.988;6.536;2024-01-07T06:32:55;1.92;;;1.83;;
52033;SDS011;38045;52.988;6.536;2024-01-07T06:35:21;3.10;;;1.33;;
52033;SDS011;38045;52.988;6.536;2024-01-07T06:37:46;1.50;;;1.40;;
52033;SDS011;38045;52.988;6.536;2024-01-07T06:40:12;2.95;;;2.50;;
52033;SDS011;38045;52.988;6.536;2024-01-07T06:42:38;3.85;;;2.45;;
52033;SDS011;38045;52.988;6.536;2024-01-07T06:45:04;7.07;;;2.47;;
52033;SDS011;38045;52.988;6.536;2024-01-07T06:47:30;2.33;;;2.13;;
52033;SDS011;38045;52.988;6.536;2024-01-07T06:49:55;5.03;;;3.33;;
52033;SDS011;38045;52.988;6.536;2024-01-07T06:52:21;3.65;;;2.72;;
52033;SDS011;38045;52.988;6.536;2024-01-07T06:54:46;3.83;;;1.65;;
52033;SDS011;38045;52.988;6.536;2024-01-07T06:57:13;5.13;;;2.33;;
52033;SDS011;38045;52.988;6.536;2024-01-07T06:59:38;2.97;;;2.42;;
52033;SDS011;38045;52.988;6.536;2024-01-07T07:02:04;3.30;;;1.95;;
52033;SDS011;38045;52.988;6.536;2024-01-07T07:04:30;2.83;;;2.13;;
52033;SDS011;38045;52.988;6.536;2024-01-07T07:06:55;2.08;;;1.77;;
52033;SDS011;38045;52.988;6.536;2024-01-07T07:09:22;1.75;;;1.33;;
52033;SDS011;38045;52.988;6.536;2024-01-07T07:11:48;12.27;;;2.58;;
52033;SDS011;38045;52.988;6.536;2024-01-07T07:14:14;3.92;;;1.90;;
52033;SDS011;38045;52.988;6.536;2024-01-07T07:16:39;5.35;;;2.33;;
52033;SDS011;38045;52.988;6.536;2024-01-07T07:19:05;13.60;;;2.35;;
52033;SDS011;38045;52.988;6.536;2024-01-07T07:21:31;2.10;;;0.90;;
52033;SDS011;38045;52.988;6.536;2024-01-07T07:23:56;2.58;;;1.70;;
52033;SDS011;38045;52.988;6.536;2024-01-07T07:26:22;2.58;;;2.10;;
52033;SDS011;38045;52.988;6.536;2024-01-07T07:28:48;3.30;;;1.60;;
52033;SDS011;38045;52.988;6.536;2024-01-07T07:31:13;3.53;;;2.30;;
52033;SDS011;38045;52.988;6.536;2024-01-07T07:33:39;1.60;;;1.50;;
52033;SDS011;38045;52.988;6.536;2024-01-07T07:36:05;2.42;;;1.63;;
52033;SDS011;38045;52.988;6.536;2024-01-07T07:38:31;2.88;;;2.20;;
52033;SDS011;38045;52.988;6.536;2024-01-07T07:40:57;2.58;;;2.03;;
52033;SDS011;38045;52.988;6.536;2024-01-07T07:43:23;1.95;;;1.50;;
52033;SDS011;38045;52.988;6.536;2024-01-07T07:45:50;3.53;;;2.00;;
52033;SDS011;38045;52.988;6.536;2024-01-07T07:48:16;3.15;;;2.03;;
52033;SDS011;38045;52.988;6.536;2024-01-07T07:50:42;1.80;;;1.60;;
52033;SDS011;38045;52.988;6.536;2024-01-07T07:53:07;3.33;;;2.35;;
52033;SDS011;38045;52.988;6.536;2024-01-07T07:55:33;7.32;;;2.58;;
52033;SDS011;38045;52.988;6.536;2024-01-07T07:57:58;2.83;;;1.92;;
52033;SDS011;38045;52.988;6.536;2024-01-07T08:00:24;1.65;;;1.15;;
52033;SDS011;38045;52.988;6.536;2024-01-07T08:02:50;3.80;;;1.92;;
52033;SDS011;38045;52.988;6.536;2024-01-07T08:05:15;1.92;;;1.63;;
52033;SDS011;38045;52.988;6.536;2024-01-07T08:07:41;5.40;;;1.48;;
52033;SDS011;38045;52.988;6.536;2024-01-07T08:10:07;3.60;;;1.40;;
52033;SDS011;38045;52.988;6.536;2024-01-07T08:12:33;3.70;;;1.83;;
52033;SDS011;38045;52.988;6.536;2024-01-07T08:14:59;2.38;;;1.98;;
52033;SDS011;38045;52.988;6.536;2024-01-07T08:17:24;2.75;;;1.55;;
52033;SDS011;38045;52.988;6.536;2024-01-07T08:19:50;0.93;;;0.93;;
52033;SDS011;38045;52.988;6.536;2024-01-07T08:22:16;2.42;;;1.45;;
52033;SDS011;38045;52.988;6.536;2024-01-07T08:24:41;1.98;;;1.77;;
52033;SDS011;38045;52.988;6.536;2024-01-07T08:27:07;3.97;;;1.15;;
52033;SDS011;38045;52.988;6.536;2024-01-07T08:29:33;3.53;;;1.55;;
52033;SDS011;38045;52.988;6.536;2024-01-07T08:32:00;3.38;;;1.80;;
52033;SDS011;38045;52.988;6.536;2024-01-07T08:34:26;2.60;;;1.95;;
52033;SDS011;38045;52.988;6.536;2024-01-07T08:36:52;5.38;;;1.88;;
52033;SDS011;38045;52.988;6.536;2024-01-07T08:39:19;3.13;;;2.30;;
52033;SDS011;38045;52.988;6.536;2024-01-07T08:41:45;2.75;;;1.95;;
52033;SDS011;38045;52.988;6.536;2024-01-07T08:44:10;3.78;;;1.80;;
52033;SDS011;38045;52.988;6.536;2024-01-07T08:46:36;1.52;;;1.20;;
52033;SDS011;38045;52.988;6.536;2024-01-07T08:49:02;1.90;;;1.77;;
52033;SDS011;38045;52.988;6.536;2024-01-07T08:51:28;3.15;;;1.92;;
52033;SDS011;38045;52.988;6.536;2024-01-07T08:53:54;2.63;;;1.10;;
52033;SDS011;38045;52.988;6.536;2024-01-07T08:56:22;4.88;;;1.50;;
52033;SDS011;38045;52.988;6.536;2024-01-07T08:58:48;1.77;;;1.65;;
52033;SDS011;38045;52.988;6.536;2024-01-07T09:01:13;6.97;;;1.27;;
52033;SDS011;38045;52.988;6.536;2024-01-07T09:03:39;12.07;;;1.30;;
52033;SDS011;38045;52.988;6.536;2024-01-07T09:06:05;3.85;;;1.45;;
52033;SDS011;38045;52.988;6.536;2024-01-07T09:08:30;2.53;;;1.13;;
52033;SDS011;38045;52.988;6.536;2024-01-07T09:10:56;1.77;;;1.00;;
52033;SDS011;38045;52.988;6.536;2024-01-07T09:13:22;2.17;;;1.60;;
52033;SDS011;38045;52.988;6.536;2024-01-07T09:15:48;2.28;;;1.73;;
52033;SDS011;38045;52.988;6.536;2024-01-07T09:18:13;1.52;;;1.35;;
52033;SDS011;38045;52.988;6.536;2024-01-07T09:20:39;2.75;;;1.70;;
52033;SDS011;38045;52.988;6.536;2024-01-07T09:23:05;1.55;;;1.30;;
52033;SDS011;38045;52.988;6.536;2024-01-07T09:25:30;1.60;;;1.50;;
52033;SDS011;38045;52.988;6.536;2024-01-07T09:27:56;2.67;;;1.83;;
52033;SDS011;38045;52.988;6.536;2024-01-07T09:30:21;2.15;;;1.48;;
52033;SDS011;38045;52.988;6.536;2024-01-07T09:32:47;2.00;;;1.67;;
52033;SDS011;38045;52.988;6.536;2024-01-07T09:35:12;6.72;;;2.17;;
52033;SDS011;38045;52.988;6.536;2024-01-07T09:37:38;2.67;;;1.10;;
52033;SDS011;38045;52.988;6.536;2024-01-07T09:40:04;2.33;;;1.95;;
52033;SDS011;38045;52.988;6.536;2024-01-07T09:42:33;3.63;;;1.42;;
52033;SDS011;38045;52.988;6.536;2024-01-07T09:45:02;3.20;;;1.88;;
52033;SDS011;38045;52.988;6.536;2024-01-07T09:47:31;2.40;;;1.90;;
52033;SDS011;38045;52.988;6.536;2024-01-07T09:49:56;0.85;;;0.70;;
52033;SDS011;38045;52.988;6.536;2024-01-07T09:52:22;3.28;;;1.95;;
52033;SDS011;38045;52.988;6.536;2024-01-07T09:54:51;6.40;;;1.38;;
52033;SDS011;38045;52.988;6.536;2024-01-07T09:57:19;2.00;;;1.67;;
52033;SDS011;38045;52.988;6.536;2024-01-07T09:59:45;1.35;;;1.25;;
52033;SDS011;38045;52.988;6.536;2024-01-07T10:02:12;3.38;;;1.60;;
52033;SDS011;38045;52.988;6.536;2024-01-07T10:04:37;3.97;;;2.40;;
52033;SDS011;38045;52.988;6.536;2024-01-07T10:07:03;2.25;;;1.70;;
52033;SDS011;38045;52.988;6.536;2024-01-07T10:09:30;1.17;;;1.08;;
52033;SDS011;38045;52.988;6.536;2024-01-07T10:11:57;2.55;;;1.85;;
52033;SDS011;38045;52.988;6.536;2024-01-07T10:14:23;4.43;;;2.30;;
52033;SDS011;38045;52.988;6.536;2024-01-07T10:16:52;5.15;;;1.30;;
52033;SDS011;38045;52.988;6.536;2024-01-07T10:19:19;6.10;;;2.13;;
52033;SDS011;38045;52.988;6.536;2024-01-07T10:21:46;1.58;;;1.48;;
52033;SDS011;38045;52.988;6.536;2024-01-07T10:24:12;3.45;;;1.83;;
52033;SDS011;38045;52.988;6.536;2024-01-07T10:26:39;1.80;;;1.70;;
52033;SDS011;38045;52.988;6.536;2024-01-07T10:29:06;1.58;;;1.23;;
52033;SDS011;38045;52.988;6.536;2024-01-07T10:31:33;1.65;;;1.55;;
52033;SDS011;38045;52.988;6.536;2024-01-07T10:33:59;1.50;;;1.30;;
52033;SDS011;38045;52.988;6.536;2024-01-07T10:36:24;1.42;;;1.10;;
52033;SDS011;38045;52.988;6.536;2024-01-07T10:38:50;1.45;;;1.35;;
52033;SDS011;38045;52.988;6.536;2024-01-07T10:41:19;2.17;;;1.55;;
52033;SDS011;38045;52.988;6.536;2024-01-07T10:43:46;1.83;;;1.45;;
52033;SDS011;38045;52.988;6.536;2024-01-07T10:46:13;1.63;;;1.48;;
52033;SDS011;38045;52.988;6.536;2024-01-07T10:48:43;1.23;;;1.02;;
52033;SDS011;38045;52.988;6.536;2024-01-07T10:51:13;1.50;;;1.40;;
52033;SDS011;38045;52.988;6.536;2024-01-07T10:53:39;2.13;;;1.55;;
52033;SDS011;38045;52.988;6.536;2024-01-07T10:56:09;4.35;;;1.20;;
52033;SDS011;38045;52.988;6.536;2024-01-07T10:58:37;3.55;;;1.83;;
52033;SDS011;38045;52.988;6.536;2024-01-07T11:01:05;2.35;;;0.98;;
52033;SDS011;38045;52.988;6.536;2024-01-07T11:06:19;6.72;;;2.85;;
52033;SDS011;38045;52.988;6.536;2024-01-07T11:08:58;1.17;;;1.13;;
52033;SDS011;38045;52.988;6.536;2024-01-07T11:11:32;1.42;;;1.27;;
52033;SDS011;38045;52.988;6.536;2024-01-07T11:14:03;1.90;;;1.65;;
52033;SDS011;38045;52.988;6.536;2024-01-07T11:19:04;4.43;;;2.20;;
52033;SDS011;38045;52.988;6.536;2024-01-07T11:21:30;7.35;;;4.00;;
52033;SDS011;38045;52.988;6.536;2024-01-07T11:23:55;6.07;;;2.67;;
52033;SDS011;38045;52.988;6.536;2024-01-07T11:26:21;3.40;;;2.25;;
52033;SDS011;38045;52.988;6.536;2024-01-07T11:28:57;5.88;;;3.25;;
52033;SDS011;38045;52.988;6.536;2024-01-07T11:34:06;5.47;;;3.97;;
52033;SDS011;38045;52.988;6.536;2024-01-07T11:36:33;3.25;;;2.65;;
52033;SDS011;38045;52.988;6.536;2024-01-07T11:39:01;3.60;;;2.72;;
52033;SDS011;38045;52.988;6.536;2024-01-07T11:41:31;3.72;;;2.13;;
52033;SDS011;38045;52.988;6.536;2024-01-07T11:46:27;3.67;;;1.63;;
52033;SDS011;38045;52.988;6.536;2024-01-07T11:48:56;3.55;;;2.60;;
52033;SDS011;38045;52.988;6.536;2024-01-07T11:51:27;3.15;;;2.03;;
52033;SDS011;38045;52.988;6.536;2024-01-07T11:53:54;4.72;;;3.30;;
52033;SDS011;38045;52.988;6.536;2024-01-07T11:56:19;8.68;;;2.83;;
52033;SDS011;38045;52.988;6.536;2024-01-07T11:58:45;3.83;;;1.63;;
52033;SDS011;38045;52.988;6.536;2024-01-07T12:01:11;5.72;;;3.15;;
52033;SDS011;38045;52.988;6.536;2024-01-07T12:03:39;4.70;;;2.33;;
52033;SDS011;38045;52.988;6.536;2024-01-07T12:06:06;6.07;;;2.38;;
52033;SDS011;38045;52.988;6.536;2024-01-07T12:08:32;1.98;;;1.58;;
52033;SDS011;38045;52.988;6.536;2024-01-07T12:10:59;5.28;;;3.10;;
52033;SDS011;38045;52.988;6.536;2024-01-07T12:13:24;2.65;;;1.67;;
52033;SDS011;38045;52.988;6.536;2024-01-07T12:15:50;7.18;;;3.00;;
52033;SDS011;38045;52.988;6.536;2024-01-07T12:18:16;6.22;;;2.70;;
52033;SDS011;38045;52.988;6.536;2024-01-07T12:20:42;7.03;;;4.22;;
52033;SDS011;38045;52.988;6.536;2024-01-07T12:23:19;6.28;;;3.47;;
52033;SDS011;38045;52.988;6.536;2024-01-07T12:25:44;3.65;;;3.13;;
52033;SDS011;38045;52.988;6.536;2024-01-07T12:28:10;13.32;;;4.20;;
52033;SDS011;38045;52.988;6.536;2024-01-07T12:30:35;3.70;;;3.33;;
52033;SDS011;38045;52.988;6.536;2024-01-07T12:33:03;4.43;;;3.42;;
52033;SDS011;38045;52.988;6.536;2024-01-07T12:35:30;7.15;;;3.50;;
52033;SDS011;38045;52.988;6.536;2024-01-07T12:37:56;4.78;;;3.25;;
52033;SDS011;38045;52.988;6.536;2024-01-07T12:40:24;4.40;;;2.47;;
52033;SDS011;38045;52.988;6.536;2024-01-07T12:42:51;7.15;;;3.50;;
52033;SDS011;38045;52.988;6.536;2024-01-07T12:45:17;14.05;;;5.00;;
52033;SDS011;38045;52.988;6.536;2024-01-07T12:47:43;5.53;;;3.35;;
52033;SDS011;38045;52.988;6.536;2024-01-07T12:50:09;4.63;;;3.33;;
52033;SDS011;38045;52.988;6.536;2024-01-07T12:52:36;8.32;;;4.35;;
52033;SDS011;38045;52.988;6.536;2024-01-07T12:55:03;5.03;;;3.60;;
52033;SDS011;38045;52.988;6.536;2024-01-07T12:57:29;5.68;;;5.10;;
52033;SDS011;38045;52.988;6.536;2024-01-07T12:59:55;6.95;;;4.15;;
52033;SDS011;38045;52.988;6.536;2024-01-07T13:02:20;5.18;;;3.22;;
52033;SDS011;38045;52.988;6.536;2024-01-07T13:04:46;8.30;;;3.97;;
52033;SDS011;38045;52.988;6.536;2024-01-07T13:07:11;6.90;;;4.95;;
52033;SDS011;38045;52.988;6.536;2024-01-07T13:09:37;5.60;;;3.30;;
52033;SDS011;38045;52.988;6.536;2024-01-07T13:12:03;6.40;;;3.95;;
52033;SDS011;38045;52.988;6.536;2024-01-07T13:14:29;4.80;;;2.97;;
52033;SDS011;38045;52.988;6.536;2024-01-07T13:16:55;11.95;;;4.05;;
52033;SDS011;38045;52.988;6.536;2024-01-07T13:19:20;3.58;;;3.28;;
52033;SDS011;38045;52.988;6.536;2024-01-07T13:21:46;7.22;;;3.80;;
52033;SDS011;38045;52.988;6.536;2024-01-07T13:24:12;6.25;;;3.08;;
52033;SDS011;38045;52.988;6.536;2024-01-07T13:26:37;4.65;;;3.33;;
52033;SDS011;38045;52.988;6.536;2024-01-07T13:29:03;5.50;;;4.30;;
52033;SDS011;38045;52.988;6.536;2024-01-07T13:31:29;7.13;;;3.80;;
52033;SDS011;38045;52.988;6.536;2024-01-07T13:33:55;4.70;;;4.22;;
52033;SDS011;38045;52.988;6.536;2024-01-07T13:36:20;6.70;;;3.63;;
52033;SDS011;38045;52.988;6.536;2024-01-07T13:38:46;6.18;;;3.95;;
52033;SDS011;38045;52.988;6.536;2024-01-07T13:41:15;4.97;;;3.35;;
52033;SDS011;38045;52.988;6.536;2024-01-07T13:43:41;4.70;;;4.30;;
52033;SDS011;38045;52.988;6.536;2024-01-07T13:46:07;7.75;;;4.05;;
52033;SDS011;38045;52.988;6.536;2024-01-07T13:48:33;8.57;;;4.15;;
52033;SDS011;38045;52.988;6.536;2024-01-07T13:50:59;6.07;;;4.60;;
52033;SDS011;38045;52.988;6.536;2024-01-07T13:53:25;8.65;;;3.70;;
52033;SDS011;38045;52.988;6.536;2024-01-07T13:55:51;5.72;;;4.40;;
52033;SDS011;38045;52.988;6.536;2024-01-07T13:58:16;5.18;;;3.58;;
52033;SDS011;38045;52.988;6.536;2024-01-07T14:00:42;6.07;;;3.92;;
52033;SDS011;38045;52.988;6.536;2024-01-07T14:03:08;4.32;;;3.22;;
52033;SDS011;38045;52.988;6.536;2024-01-07T14:05:33;14.57;;;5.10;;
52033;SDS011;38045;52.988;6.536;2024-01-07T14:07:59;8.07;;;3.72;;
52033;SDS011;38045;52.988;6.536;2024-01-07T14:10:24;6.15;;;4.68;;
52033;SDS011;38045;52.988;6.536;2024-01-07T14:12:50;5.70;;;3.97;;
52033;SDS011;38045;52.988;6.536;2024-01-07T14:15:16;8.80;;;4.78;;
52033;SDS011;38045;52.988;6.536;2024-01-07T14:17:43;5.93;;;5.18;;
52033;SDS011;38045;52.988;6.536;2024-01-07T14:20:09;4.75;;;4.18;;
52033;SDS011;38045;52.988;6.536;2024-01-07T14:22:35;9.05;;;5.50;;
52033;SDS011;38045;52.988;6.536;2024-01-07T14:25:01;5.43;;;4.78;;
52033;SDS011;38045;52.988;6.536;2024-01-07T14:27:28;5.95;;;4.80;;
52033;SDS011;38045;52.988;6.536;2024-01-07T14:29:54;10.85;;;5.50;;
52033;SDS011;38045;52.988;6.536;2024-01-07T14:32:21;7.35;;;5.18;;
52033;SDS011;38045;52.988;6.536;2024-01-07T14:34:47;4.13;;;3.55;;
52033;SDS011;38045;52.988;6.536;2024-01-07T14:37:14;5.65;;;4.05;;
52033;SDS011;38045;52.988;6.536;2024-01-07T14:39:40;8.60;;;4.10;;
52033;SDS011;38045;52.988;6.536;2024-01-07T14:42:06;6.32;;;4.43;;
52033;SDS011;38045;52.988;6.536;2024-01-07T14:44:31;5.95;;;4.55;;
52033;SDS011;38045;52.988;6.536;2024-01-07T14:46:57;3.88;;;3.50;;